sensor_id;sensor_type;location;lat;lon;timestamp;pressure;altitude;pressure_sealevel;temperature;humidity
6453;BME280;3259;51.080;13.712;2023-08-24T00:02:28;100646.03;;;30.13;40.79
6453;BME280;3259;51.080;13.712;2023-08-24T00:05:17;100639.47;;;30.09;40.67
6453;BME280;3259;51.080;13.712;2023-08-24T00:08:06;100650.44;;;30.07;40.68
6453;BME280;3259;51.080;13.712;2023-08-24T00:10:56;100646.31;;;30.05;40.95
6453;BME280;3259;51.080;13.712;2023-08-24T00:13:45;100647.34;;;30.04;40.42
6453;BME280;3259;51.080;13.712;2023-08-24T00:16:36;100645.69;;;30.03;40.81
6453;BME280;3259;51.080;13.712;2023-08-24T00:19:26;100654.81;;;30.02;40.56
6453;BME280;3259;51.080;13.712;2023-08-24T00:22:15;100652.34;;;30.00;40.59
6453;BME280;3259;51.080;13.712;2023-08-24T00:25:06;100650.69;;;29.99;40.63
6453;BME280;3259;51.080;13.712;2023-08-24T00:27:56;100647.03;;;29.94;40.66
6453;BME280;3259;51.080;13.712;2023-08-24T00:30:45;100635.66;;;29.92;40.57
6453;BME280;3259;51.080;13.712;2023-08-24T00:33:34;100636.50;;;29.92;40.72
6453;BME280;3259;51.080;13.712;2023-08-24T00:36:24;100635.53;;;29.87;40.49
6453;BME280;3259;51.080;13.712;2023-08-24T00:39:13;100647.34;;;29.86;40.63
6453;BME280;3259;51.080;13.712;2023-08-24T00:42:04;100649.19;;;29.85;40.53
6453;BME280;3259;51.080;13.712;2023-08-24T00:44:54;100645.69;;;29.85;40.64
6453;BME280;3259;51.080;13.712;2023-08-24T00:47:44;100645.31;;;29.81;41.00
6453;BME280;3259;51.080;13.712;2023-08-24T00:50:35;100649.50;;;29.77;40.39
6453;BME280;3259;51.080;13.712;2023-08-24T00:53:26;100643.88;;;29.79;40.90
6453;BME280;3259;51.080;13.712;2023-08-24T00:56:15;100646.44;;;29.74;40.82
6453;BME280;3259;51.080;13.712;2023-08-24T00:59:04;100643.94;;;29.72;41.07
6453;BME280;3259;51.080;13.712;2023-08-24T01:01:53;100648.50;;;29.72;40.90
6453;BME280;3259;51.080;13.712;2023-08-24T01:04:42;100645.44;;;29.68;40.94
6453;BME280;3259;51.080;13.712;2023-08-24T01:07:31;100641.50;;;29.71;41.03
6453;BME280;3259;51.080;13.712;2023-08-24T01:10:24;100644.59;;;29.68;40.70
6453;BME280;3259;51.080;13.712;2023-08-24T01:13:23;100646.50;;;29.67;41.09
6453;BME280;3259;51.080;13.712;2023-08-24T01:16:16;100635.34;;;29.64;41.04
6453;BME280;3259;51.080;13.712;2023-08-24T01:19:07;100635.34;;;29.64;41.11
6453;BME280;3259;51.080;13.712;2023-08-24T01:22:01;100637.88;;;29.59;41.25
6453;BME280;3259;51.080;13.712;2023-08-24T01:25:00;100632.50;;;29.59;40.89
6453;BME280;3259;51.080;13.712;2023-08-24T01:27:52;100629.19;;;29.57;41.03
6453;BME280;3259;51.080;13.712;2023-08-24T01:30:43;100635.69;;;29.49;40.84
6453;BME280;3259;51.080;13.712;2023-08-24T01:33:32;100627.19;;;29.46;40.91
6453;BME280;3259;51.080;13.712;2023-08-24T01:36:21;100623.50;;;29.47;41.22
6453;BME280;3259;51.080;13.712;2023-08-24T01:39:17;100627.19;;;29.46;40.94
6453;BME280;3259;51.080;13.712;2023-08-24T01:42:11;100621.66;;;29.41;41.47
6453;BME280;3259;51.080;13.712;2023-08-24T01:45:08;100621.72;;;29.34;41.01
6453;BME280;3259;51.080;13.712;2023-08-24T01:48:03;100621.13;;;29.32;41.28
6453;BME280;3259;51.080;13.712;2023-08-24T01:50:53;100631.03;;;29.32;41.74
6453;BME280;3259;51.080;13.712;2023-08-24T01:53:42;100630.25;;;29.31;41.43
6453;BME280;3259;51.080;13.712;2023-08-24T01:56:31;100634.78;;;29.31;41.22
6453;BME280;3259;51.080;13.712;2023-08-24T01:59:19;100628.59;;;29.30;41.28
6453;BME280;3259;51.080;13.712;2023-08-24T02:02:12;100624.03;;;29.31;41.93
6453;BME280;3259;51.080;13.712;2023-08-24T02:05:01;100631.03;;;29.32;41.54
6453;BME280;3259;51.080;13.712;2023-08-24T02:07:50;100632.69;;;29.33;41.98
6453;BME280;3259;51.080;13.712;2023-08-24T02:10:38;100621.94;;;29.33;41.27
6453;BME280;3259;51.080;13.712;2023-08-24T02:13:27;100619.69;;;29.30;42.25
6453;BME280;3259;51.080;13.712;2023-08-24T02:16:16;100610.59;;;29.31;42.22
6453;BME280;3259;51.080;13.712;2023-08-24T02:19:06;100618.25;;;29.27;42.11
6453;BME280;3259;51.080;13.712;2023-08-24T02:21:55;100622.22;;;29.25;42.20
6453;BME280;3259;51.080;13.712;2023-08-24T02:24:43;100622.81;;;29.27;41.52
6453;BME280;3259;51.080;13.712;2023-08-24T02:27:33;100619.34;;;29.20;41.74
6453;BME280;3259;51.080;13.712;2023-08-24T02:30:22;100615.03;;;29.19;41.83
6453;BME280;3259;51.080;13.712;2023-08-24T02:33:10;100613.19;;;29.19;41.84
6453;BME280;3259;51.080;13.712;2023-08-24T02:36:00;100619.66;;;29.12;41.77
6453;BME280;3259;51.080;13.712;2023-08-24T02:38:49;100625.09;;;28.99;41.83
6453;BME280;3259;51.080;13.712;2023-08-24T02:41:38;100616.03;;;28.87;41.75
6453;BME280;3259;51.080;13.712;2023-08-24T02:44:27;100608.88;;;28.81;42.05
6453;BME280;3259;51.080;13.712;2023-08-24T02:47:16;100612.81;;;28.78;42.21
6453;BME280;3259;51.080;13.712;2023-08-24T02:50:06;100624.84;;;28.69;42.13
6453;BME280;3259;51.080;13.712;2023-08-24T02:52:56;100623.78;;;28.77;42.15
6453;BME280;3259;51.080;13.712;2023-08-24T02:55:45;100622.34;;;28.74;41.90
6453;BME280;3259;51.080;13.712;2023-08-24T02:58:34;100621.47;;;28.80;42.29
6453;BME280;3259;51.080;13.712;2023-08-24T03:01:23;100614.50;;;28.73;41.92
6453;BME280;3259;51.080;13.712;2023-08-24T03:04:12;100616.53;;;28.77;41.82
6453;BME280;3259;51.080;13.712;2023-08-24T03:07:00;100608.75;;;28.63;41.61
6453;BME280;3259;51.080;13.712;2023-08-24T03:09:51;100616.72;;;28.45;42.16
6453;BME280;3259;51.080;13.712;2023-08-24T03:12:39;100623.59;;;28.28;42.73
6453;BME280;3259;51.080;13.712;2023-08-24T03:15:28;100622.09;;;28.45;42.41
6453;BME280;3259;51.080;13.712;2023-08-24T03:18:18;100619.84;;;28.42;42.38
6453;BME280;3259;51.080;13.712;2023-08-24T03:21:07;100609.94;;;28.36;42.31
6453;BME280;3259;51.080;13.712;2023-08-24T03:23:56;100616.78;;;28.32;42.42
6453;BME280;3259;51.080;13.712;2023-08-24T03:26:47;100608.97;;;28.18;42.74
6453;BME280;3259;51.080;13.712;2023-08-24T03:29:35;100608.97;;;28.18;42.14
6453;BME280;3259;51.080;13.712;2023-08-24T03:32:24;100608.41;;;28.03;42.49
6453;BME280;3259;51.080;13.712;2023-08-24T03:35:13;100607.38;;;27.97;42.95
6453;BME280;3259;51.080;13.712;2023-08-24T03:38:02;100613.38;;;27.99;42.71
6453;BME280;3259;51.080;13.712;2023-08-24T03:40:51;100611.13;;;27.90;42.94
6453;BME280;3259;51.080;13.712;2023-08-24T03:43:41;100615.03;;;27.94;42.79
6453;BME280;3259;51.080;13.712;2023-08-24T03:46:29;100610.50;;;27.94;43.15
6453;BME280;3259;51.080;13.712;2023-08-24T03:49:18;100616.03;;;27.99;43.12
6453;BME280;3259;51.080;13.712;2023-08-24T03:52:07;100614.81;;;27.95;42.96
6453;BME280;3259;51.080;13.712;2023-08-24T03:54:58;100618.97;;;27.78;43.32
6453;BME280;3259;51.080;13.712;2023-08-24T03:57:47;100616.44;;;28.03;42.55
6453;BME280;3259;51.080;13.712;2023-08-24T04:00:39;100621.03;;;27.89;42.49
6453;BME280;3259;51.080;13.712;2023-08-24T04:03:28;100613.22;;;27.81;42.90
6453;BME280;3259;51.080;13.712;2023-08-24T04:06:17;100615.47;;;27.84;42.70
6453;BME280;3259;51.080;13.712;2023-08-24T04:09:07;100612.38;;;27.87;42.70
6453;BME280;3259;51.080;13.712;2023-08-24T04:11:56;100607.00;;;27.87;42.84
6453;BME280;3259;51.080;13.712;2023-08-24T04:14:45;100611.53;;;27.93;43.02
6453;BME280;3259;51.080;13.712;2023-08-24T04:17:36;100611.53;;;28.00;42.89
6453;BME280;3259;51.080;13.712;2023-08-24T04:20:27;100602.41;;;28.07;42.96
6453;BME280;3259;51.080;13.712;2023-08-24T04:23:16;100607.94;;;28.19;42.77
6453;BME280;3259;51.080;13.712;2023-08-24T04:26:05;100609.34;;;28.28;42.33
6453;BME280;3259;51.080;13.712;2023-08-24T04:28:53;100608.91;;;28.37;42.45
6453;BME280;3259;51.080;13.712;2023-08-24T04:31:42;100610.47;;;28.51;41.91
6453;BME280;3259;51.080;13.712;2023-08-24T04:34:32;100613.00;;;28.46;42.21
6453;BME280;3259;51.080;13.712;2023-08-24T04:37:21;100607.19;;;28.49;41.91
6453;BME280;3259;51.080;13.712;2023-08-24T04:40:10;100606.81;;;28.39;42.82
6453;BME280;3259;51.080;13.712;2023-08-24T04:42:59;100620.25;;;28.39;42.76
6453;BME280;3259;51.080;13.712;2023-08-24T04:45:51;100613.47;;;28.30;42.86
6453;BME280;3259;51.080;13.712;2023-08-24T04:48:40;100611.41;;;28.32;42.63
6453;BME280;3259;51.080;13.712;2023-08-24T04:51:30;100614.72;;;28.34;42.09
6453;BME280;3259;51.080;13.712;2023-08-24T04:54:19;100622.28;;;28.43;42.47
6453;BME280;3259;51.080;13.712;2023-08-24T04:57:08;100621.06;;;28.46;42.12
6453;BME280;3259;51.080;13.712;2023-08-24T04:59:57;100616.72;;;28.45;42.47
6453;BME280;3259;51.080;13.712;2023-08-24T05:02:46;100622.25;;;28.50;42.16
6453;BME280;3259;51.080;13.712;2023-08-24T05:05:36;100617.53;;;28.45;42.84
6453;BME280;3259;51.080;13.712;2023-08-24T05:08:26;100622.47;;;28.55;42.26
6453;BME280;3259;51.080;13.712;2023-08-24T05:11:17;100626.59;;;28.51;42.17
6453;BME280;3259;51.080;13.712;2023-08-24T05:14:07;100618.97;;;28.48;42.26
6453;BME280;3259;51.080;13.712;2023-08-24T05:16:56;100621.97;;;28.64;42.15
6453;BME280;3259;51.080;13.712;2023-08-24T05:19:44;100615.97;;;28.69;41.94
6453;BME280;3259;51.080;13.712;2023-08-24T05:22:33;100616.13;;;28.74;41.77
6453;BME280;3259;51.080;13.712;2023-08-24T05:25:23;100618.22;;;28.72;41.85
6453;BME280;3259;51.080;13.712;2023-08-24T05:28:12;100626.63;;;28.82;41.85
6453;BME280;3259;51.080;13.712;2023-08-24T05:31:01;100618.53;;;28.88;41.59
6453;BME280;3259;51.080;13.712;2023-08-24T05:33:50;100616.03;;;28.87;41.48
6453;BME280;3259;51.080;13.712;2023-08-24T05:36:38;100611.94;;;28.91;41.87
6453;BME280;3259;51.080;13.712;2023-08-24T05:39:27;100618.06;;;28.98;41.90
6453;BME280;3259;51.080;13.712;2023-08-24T05:42:17;100619.66;;;29.12;41.48
6453;BME280;3259;51.080;13.712;2023-08-24T05:45:07;100610.53;;;29.13;41.51
6453;BME280;3259;51.080;13.712;2023-08-24T05:47:56;100606.22;;;29.12;41.57
6453;BME280;3259;51.080;13.712;2023-08-24T05:50:45;100602.03;;;29.16;41.35
6453;BME280;3259;51.080;13.712;2023-08-24T05:53:34;100601.78;;;29.24;41.37
6453;BME280;3259;51.080;13.712;2023-08-24T05:56:23;100605.44;;;29.29;41.51
6453;BME280;3259;51.080;13.712;2023-08-24T05:59:13;100605.59;;;29.10;41.59
6453;BME280;3259;51.080;13.712;2023-08-24T06:02:03;100604.38;;;29.06;41.54
6453;BME280;3259;51.080;13.712;2023-08-24T06:04:51;100604.00;;;29.27;41.07
6453;BME280;3259;51.080;13.712;2023-08-24T06:07:40;100605.38;;;29.36;41.21
6453;BME280;3259;51.080;13.712;2023-08-24T06:10:29;100598.97;;;29.37;41.54
6453;BME280;3259;51.080;13.712;2023-08-24T06:13:18;100596.88;;;29.39;41.40
6453;BME280;3259;51.080;13.712;2023-08-24T06:16:08;100591.31;;;29.34;41.59
6453;BME280;3259;51.080;13.712;2023-08-24T06:18:57;100594.19;;;29.39;40.94
6453;BME280;3259;51.080;13.712;2023-08-24T06:21:46;100592.97;;;29.35;41.66
6453;BME280;3259;51.080;13.712;2023-08-24T06:24:35;100594.47;;;29.31;41.70
6453;BME280;3259;51.080;13.712;2023-08-24T06:27:26;100592.97;;;29.35;40.88
6453;BME280;3259;51.080;13.712;2023-08-24T06:30:14;100590.72;;;29.32;41.21
6453;BME280;3259;51.080;13.712;2023-08-24T06:33:05;100578.50;;;29.36;41.55
6453;BME280;3259;51.080;13.712;2023-08-24T06:35:54;100587.91;;;29.45;41.24
6453;BME280;3259;51.080;13.712;2023-08-24T06:38:43;100586.72;;;29.41;41.13
6453;BME280;3259;51.080;13.712;2023-08-24T06:41:33;100588.13;;;29.50;41.31
6453;BME280;3259;51.080;13.712;2023-08-24T06:44:22;100588.38;;;29.42;41.61
6453;BME280;3259;51.080;13.712;2023-08-24T06:47:11;100590.81;;;29.50;40.99
6453;BME280;3259;51.080;13.712;2023-08-24T06:50:01;100585.75;;;29.60;41.22
6453;BME280;3259;51.080;13.712;2023-08-24T06:52:50;100584.41;;;29.69;41.05
6453;BME280;3259;51.080;13.712;2023-08-24T06:55:39;100588.28;;;29.55;40.72
6453;BME280;3259;51.080;13.712;2023-08-24T06:58:27;100587.88;;;29.51;41.42
6453;BME280;3259;51.080;13.712;2023-08-24T07:01:16;100584.19;;;29.46;40.94
6453;BME280;3259;51.080;13.712;2023-08-24T07:04:06;100593.56;;;29.61;41.48
6453;BME280;3259;51.080;13.712;2023-08-24T07:06:56;100586.94;;;29.64;41.49
6453;BME280;3259;51.080;13.712;2023-08-24T07:09:45;100591.72;;;29.80;42.01
6453;BME280;3259;51.080;13.712;2023-08-24T07:12:34;100590.69;;;29.81;41.67
6453;BME280;3259;51.080;13.712;2023-08-24T07:15:23;100597.88;;;29.87;41.98
6453;BME280;3259;51.080;13.712;2023-08-24T07:18:12;100584.13;;;29.95;42.01
6453;BME280;3259;51.080;13.712;2023-08-24T07:21:01;100582.16;;;30.02;42.13
6453;BME280;3259;51.080;13.712;2023-08-24T07:23:51;100581.91;;;30.10;42.01
6453;BME280;3259;51.080;13.712;2023-08-24T07:26:41;100580.97;;;30.16;42.26
6453;BME280;3259;51.080;13.712;2023-08-24T07:29:29;100571.66;;;30.18;42.27
6453;BME280;3259;51.080;13.712;2023-08-24T07:32:18;100578.38;;;30.27;42.51
6453;BME280;3259;51.080;13.712;2023-08-24T07:35:11;100572.16;;;30.27;42.20
6453;BME280;3259;51.080;13.712;2023-08-24T07:38:00;100567.22;;;30.24;42.60
6453;BME280;3259;51.080;13.712;2023-08-24T07:40:53;100561.66;;;30.37;42.27
6453;BME280;3259;51.080;13.712;2023-08-24T07:43:42;100568.50;;;30.21;42.95
6453;BME280;3259;51.080;13.712;2023-08-24T07:46:31;100575.31;;;30.24;43.32
6453;BME280;3259;51.080;13.712;2023-08-24T07:49:19;100567.16;;;30.42;42.54
6453;BME280;3259;51.080;13.712;2023-08-24T07:52:08;100573.19;;;30.44;42.98
6453;BME280;3259;51.080;13.712;2023-08-24T07:54:58;100576.44;;;30.46;42.52
6453;BME280;3259;51.080;13.712;2023-08-24T07:57:51;100578.22;;;30.52;42.94
6453;BME280;3259;51.080;13.712;2023-08-24T08:00:40;100568.97;;;30.48;42.80
6453;BME280;3259;51.080;13.712;2023-08-24T08:03:31;100566.06;;;30.49;42.63
6453;BME280;3259;51.080;13.712;2023-08-24T08:06:21;100567.59;;;30.57;43.08
6453;BME280;3259;51.080;13.712;2023-08-24T08:09:11;100567.53;;;30.63;43.00
6453;BME280;3259;51.080;13.712;2023-08-24T08:12:00;100572.09;;;30.63;42.73
6453;BME280;3259;51.080;13.712;2023-08-24T08:14:51;100564.59;;;30.65;43.03
6453;BME280;3259;51.080;13.712;2023-08-24T08:17:40;100567.91;;;30.67;42.79
6453;BME280;3259;51.080;13.712;2023-08-24T08:20:30;100560.41;;;30.69;43.10
6453;BME280;3259;51.080;13.712;2023-08-24T08:23:18;100563.69;;;30.71;42.75
6453;BME280;3259;51.080;13.712;2023-08-24T08:26:07;100572.34;;;30.73;43.38
6453;BME280;3259;51.080;13.712;2023-08-24T08:28:58;100567.81;;;30.73;42.90
6453;BME280;3259;51.080;13.712;2023-08-24T08:31:49;100563.69;;;30.71;43.23
6453;BME280;3259;51.080;13.712;2023-08-24T08:34:38;100561.09;;;30.76;43.11
6453;BME280;3259;51.080;13.712;2023-08-24T08:37:26;100562.31;;;30.80;42.63
6453;BME280;3259;51.080;13.712;2023-08-24T08:40:16;100553.75;;;30.83;42.70
6453;BME280;3259;51.080;13.712;2023-08-24T08:43:05;100551.53;;;30.80;42.77
6453;BME280;3259;51.080;13.712;2023-08-24T08:45:55;100550.59;;;30.86;42.69
6453;BME280;3259;51.080;13.712;2023-08-24T08:48:46;100555.97;;;30.86;43.09
6453;BME280;3259;51.080;13.712;2023-08-24T08:51:37;100550.59;;;30.86;42.94
6453;BME280;3259;51.080;13.712;2023-08-24T08:54:26;100542.28;;;30.87;43.28
6453;BME280;3259;51.080;13.712;2023-08-24T08:57:16;100544.28;;;30.92;42.81
6453;BME280;3259;51.080;13.712;2023-08-24T09:00:07;100544.63;;;30.95;42.89
6453;BME280;3259;51.080;13.712;2023-08-24T09:02:59;100536.31;;;30.97;43.34
6453;BME280;3259;51.080;13.712;2023-08-24T09:05:49;100534.78;;;31.00;43.18
6453;BME280;3259;51.080;13.712;2023-08-24T09:08:38;100520.16;;;30.97;42.93
6453;BME280;3259;51.080;13.712;2023-08-24T09:11:27;100511.28;;;30.96;43.50
6453;BME280;3259;51.080;13.712;2023-08-24T09:14:16;100516.75;;;31.01;43.18
6453;BME280;3259;51.080;13.712;2023-08-24T09:17:06;100510.91;;;31.04;43.47
6453;BME280;3259;51.080;13.712;2023-08-24T09:20:00;100507.41;;;31.03;43.10
6453;BME280;3259;51.080;13.712;2023-08-24T09:22:50;100513.38;;;31.05;43.00
6453;BME280;3259;51.080;13.712;2023-08-24T09:25:45;100504.22;;;31.06;43.33
6453;BME280;3259;51.080;13.712;2023-08-24T09:28:34;100491.34;;;31.08;43.24
6453;BME280;3259;51.080;13.712;2023-08-24T09:31:23;100486.78;;;31.09;42.99
6453;BME280;3259;51.080;13.712;2023-08-24T09:34:12;100486.69;;;31.15;43.07
6453;BME280;3259;51.080;13.712;2023-08-24T09:37:01;100484.66;;;31.11;43.32
6453;BME280;3259;51.080;13.712;2023-08-24T09:40:01;100477.53;;;31.16;43.33
6453;BME280;3259;51.080;13.712;2023-08-24T09:42:54;100486.56;;;31.22;43.46
6453;BME280;3259;51.080;13.712;2023-08-24T09:45:49;100471.56;;;31.26;43.23
6453;BME280;3259;51.080;13.712;2023-08-24T09:48:38;100468.63;;;31.27;43.46
6453;BME280;3259;51.080;13.712;2023-08-24T09:51:27;100463.25;;;31.27;43.11
6453;BME280;3259;51.080;13.712;2023-08-24T09:54:17;100451.97;;;31.30;43.00
6453;BME280;3259;51.080;13.712;2023-08-24T09:57:11;100447.06;;;31.27;43.50
6453;BME280;3259;51.080;13.712;2023-08-24T10:00:01;100434.16;;;31.29;43.52
6453;BME280;3259;51.080;13.712;2023-08-24T10:02:57;100435.22;;;31.28;43.46
6453;BME280;3259;51.080;13.712;2023-08-24T10:05:50;100439.41;;;31.36;43.23
6453;BME280;3259;51.080;13.712;2023-08-24T10:08:47;100442.69;;;31.38;43.47
6453;BME280;3259;51.080;13.712;2023-08-24T10:11:43;100447.59;;;31.41;43.41
6453;BME280;3259;51.080;13.712;2023-08-24T10:14:43;100447.72;;;31.34;43.22
6453;BME280;3259;51.080;13.712;2023-08-24T10:17:36;100448.22;;;31.31;43.38
6453;BME280;3259;51.080;13.712;2023-08-24T10:20:24;100443.28;;;31.40;43.51
6453;BME280;3259;51.080;13.712;2023-08-24T10:23:15;100440.22;;;31.36;43.66
6453;BME280;3259;51.080;13.712;2023-08-24T10:26:06;100447.59;;;31.41;43.20
6453;BME280;3259;51.080;13.712;2023-08-24T10:28:57;100446.22;;;31.38;43.57
6453;BME280;3259;51.080;13.712;2023-08-24T10:31:48;100438.13;;;31.38;43.65
6453;BME280;3259;51.080;13.712;2023-08-24T10:34:38;100443.53;;;31.38;43.48
6453;BME280;3259;51.080;13.712;2023-08-24T10:37:27;100434.59;;;31.49;43.15
6453;BME280;3259;51.080;13.712;2023-08-24T10:40:31;100435.88;;;31.47;43.12
6453;BME280;3259;51.080;13.712;2023-08-24T10:43:20;100423.59;;;31.39;43.32
6453;BME280;3259;51.080;13.712;2023-08-24T10:46:12;100436.69;;;31.47;43.10
6453;BME280;3259;51.080;13.712;2023-08-24T10:49:05;100430.63;;;31.40;43.64
6453;BME280;3259;51.080;13.712;2023-08-24T10:51:54;100420.19;;;31.44;43.35
6453;BME280;3259;51.080;13.712;2023-08-24T10:54:43;100414.31;;;31.47;43.75
6453;BME280;3259;51.080;13.712;2023-08-24T10:57:35;100423.19;;;31.47;43.28
6453;BME280;3259;51.080;13.712;2023-08-24T11:00:28;100410.31;;;31.49;43.24
6453;BME280;3259;51.080;13.712;2023-08-24T11:03:31;100413.59;;;31.40;43.51
6453;BME280;3259;51.080;13.712;2023-08-24T11:06:23;100406.22;;;31.35;43.78
6453;BME280;3259;51.080;13.712;2023-08-24T11:09:12;100402.97;;;31.33;44.19
6453;BME280;3259;51.080;13.712;2023-08-24T11:12:02;100403.53;;;31.35;43.69
6453;BME280;3259;51.080;13.712;2023-08-24T11:14:52;100398.06;;;31.30;43.79
6453;BME280;3259;51.080;13.712;2023-08-24T11:21:20;100386.78;;;31.33;43.54
6453;BME280;3259;51.080;13.712;2023-08-24T11:24:13;100379.66;;;31.27;43.86
6453;BME280;3259;51.080;13.712;2023-08-24T11:27:02;100379.09;;;31.25;43.99
6453;BME280;3259;51.080;13.712;2023-08-24T11:29:58;100371.09;;;31.30;43.90
6453;BME280;3259;51.080;13.712;2023-08-24T11:32:51;100373.50;;;31.43;43.88
6453;BME280;3259;51.080;13.712;2023-08-24T11:35:45;100368.31;;;31.53;43.80
6453;BME280;3259;51.080;13.712;2023-08-24T11:38:37;100353.19;;;31.52;43.61
6453;BME280;3259;51.080;13.712;2023-08-24T11:41:29;100347.41;;;31.60;43.23
6453;BME280;3259;51.080;13.712;2023-08-24T11:44:18;100339.78;;;31.57;43.59
6453;BME280;3259;51.080;13.712;2023-08-24T11:47:15;100318.31;;;31.62;43.88
6453;BME280;3259;51.080;13.712;2023-08-24T11:50:05;100301.53;;;31.60;43.60
6453;BME280;3259;51.080;13.712;2023-08-24T11:52:55;100291.94;;;31.64;43.93
6453;BME280;3259;51.080;13.712;2023-08-24T11:55:44;100275.28;;;31.67;43.56
6453;BME280;3259;51.080;13.712;2023-08-24T11:58:52;100269.97;;;31.44;43.93
6453;BME280;3259;51.080;13.712;2023-08-24T12:01:42;100269.63;;;31.41;44.38
6453;BME280;3259;51.080;13.712;2023-08-24T12:04:38;100265.22;;;31.35;44.55
6453;BME280;3259;51.080;13.712;2023-08-24T12:07:30;100251.38;;;31.43;44.23
6453;BME280;3259;51.080;13.712;2023-08-24T12:10:19;100253.59;;;31.34;44.42
6453;BME280;3259;51.080;13.712;2023-08-24T12:13:08;100253.03;;;31.32;44.82
6453;BME280;3259;51.080;13.712;2023-08-24T12:16:00;100257.16;;;31.23;44.76
6453;BME280;3259;51.080;13.712;2023-08-24T12:18:51;100255.06;;;31.25;44.80
6453;BME280;3259;51.080;13.712;2023-08-24T12:21:43;100256.72;;;31.26;44.54
6453;BME280;3259;51.080;13.712;2023-08-24T12:24:33;100264.31;;;31.29;44.70
6453;BME280;3259;51.080;13.712;2023-08-24T12:27:23;100266.78;;;31.31;44.68
6453;BME280;3259;51.080;13.712;2023-08-24T12:30:13;100274.31;;;31.45;44.52
6453;BME280;3259;51.080;13.712;2023-08-24T12:33:03;100279.44;;;31.30;45.01
6453;BME280;3259;51.080;13.712;2023-08-24T12:35:53;100286.53;;;31.36;44.78
6453;BME280;3259;51.080;13.712;2023-08-24T12:38:42;100294.72;;;31.41;44.78
6453;BME280;3259;51.080;13.712;2023-08-24T12:41:33;100290.56;;;31.34;44.92
6453;BME280;3259;51.080;13.712;2023-08-24T12:44:22;100278.28;;;31.26;44.95
6453;BME280;3259;51.080;13.712;2023-08-24T12:47:11;100259.28;;;31.21;45.16
6453;BME280;3259;51.080;13.712;2023-08-24T12:50:01;100257.66;;;31.20;44.96
6453;BME280;3259;51.080;13.712;2023-08-24T12:52:50;100260.47;;;31.25;45.28
6453;BME280;3259;51.080;13.712;2023-08-24T12:55:43;100265.66;;;31.15;45.35
6453;BME280;3259;51.080;13.712;2023-08-24T12:58:33;100258.81;;;31.24;44.87
6453;BME280;3259;51.080;13.712;2023-08-24T13:01:22;100262.69;;;31.28;45.01
6453;BME280;3259;51.080;13.712;2023-08-24T13:04:10;100264.88;;;31.31;44.86
6453;BME280;3259;51.080;13.712;2023-08-24T13:07:01;100253.16;;;31.37;44.52
6453;BME280;3259;51.080;13.712;2023-08-24T13:09:51;100250.19;;;31.39;44.73
6453;BME280;3259;51.080;13.712;2023-08-24T13:12:40;100235.66;;;31.40;44.66
6453;BME280;3259;51.080;13.712;2023-08-24T13:15:29;100236.47;;;31.40;44.45
6453;BME280;3259;51.080;13.712;2023-08-24T13:18:18;100230.41;;;31.33;44.83
6453;BME280;3259;51.080;13.712;2023-08-24T13:21:07;100229.09;;;31.36;44.73
6453;BME280;3259;51.080;13.712;2023-08-24T13:23:57;100210.72;;;31.33;45.00
6453;BME280;3259;51.080;13.712;2023-08-24T13:26:46;100208.94;;;31.38;45.04
6453;BME280;3259;51.080;13.712;2023-08-24T13:29:35;100201.81;;;31.32;45.06
6453;BME280;3259;51.080;13.712;2023-08-24T13:32:23;100187.44;;;31.43;44.97
6453;BME280;3259;51.080;13.712;2023-08-24T13:35:12;100188.69;;;31.52;44.53
6453;BME280;3259;51.080;13.712;2023-08-24T13:38:01;100177.81;;;31.64;44.19
6453;BME280;3259;51.080;13.712;2023-08-24T13:40:51;100182.41;;;31.63;44.23
6453;BME280;3259;51.080;13.712;2023-08-24T13:43:40;100177.81;;;31.64;44.55
6453;BME280;3259;51.080;13.712;2023-08-24T13:46:29;100176.13;;;31.74;44.13
6453;BME280;3259;51.080;13.712;2023-08-24T13:49:18;100160.19;;;31.73;44.27
6453;BME280;3259;51.080;13.712;2023-08-24T13:52:26;100166.13;;;31.75;44.37
6453;BME280;3259;51.080;13.712;2023-08-24T13:55:15;100172.84;;;31.72;44.20
6453;BME280;3259;51.080;13.712;2023-08-24T13:58:05;100166.97;;;31.75;44.48
6453;BME280;3259;51.080;13.712;2023-08-24T14:00:57;100169.72;;;31.80;44.38
6453;BME280;3259;51.080;13.712;2023-08-24T14:03:46;100158.44;;;31.83;44.38
6453;BME280;3259;51.080;13.712;2023-08-24T14:06:36;100163.94;;;31.88;44.22
6453;BME280;3259;51.080;13.712;2023-08-24T14:09:25;100152.63;;;31.91;44.05
6453;BME280;3259;51.080;13.712;2023-08-24T14:12:14;100153.56;;;32.02;43.93
6453;BME280;3259;51.080;13.712;2023-08-24T14:15:05;100151.94;;;32.01;44.13
6453;BME280;3259;51.080;13.712;2023-08-24T14:17:54;100141.66;;;31.98;44.32
6453;BME280;3259;51.080;13.712;2023-08-24T14:20:44;100149.50;;;31.99;43.95
6453;BME280;3259;51.080;13.712;2023-08-24T14:23:33;100140.66;;;32.04;44.24
6453;BME280;3259;51.080;13.712;2023-08-24T14:26:22;100142.13;;;32.11;43.82
6453;BME280;3259;51.080;13.712;2023-08-24T14:29:13;100137.84;;;32.15;43.82
6453;BME280;3259;51.080;13.712;2023-08-24T14:32:07;100134.44;;;32.20;43.52
6453;BME280;3259;51.080;13.712;2023-08-24T14:34:56;100137.44;;;32.23;43.57
6453;BME280;3259;51.080;13.712;2023-08-24T14:37:44;100127.78;;;32.27;43.70
6453;BME280;3259;51.080;13.712;2023-08-24T14:40:33;100127.72;;;32.22;43.73
6453;BME280;3259;51.080;13.712;2023-08-24T14:43:25;100124.09;;;32.33;43.85
6453;BME280;3259;51.080;13.712;2023-08-24T14:46:15;100113.75;;;32.30;43.68
6453;BME280;3259;51.080;13.712;2023-08-24T14:49:06;100108.31;;;32.25;43.81
6453;BME280;3259;51.080;13.712;2023-08-24T14:51:55;100116.72;;;32.29;43.95
6453;BME280;3259;51.080;13.712;2023-08-24T14:54:44;100108.88;;;32.27;43.87
6453;BME280;3259;51.080;13.712;2023-08-24T14:57:33;100103.47;;;32.27;43.86
6453;BME280;3259;51.080;13.712;2023-08-24T15:00:22;100104.31;;;32.28;43.72
6453;BME280;3259;51.080;13.712;2023-08-24T15:03:10;100099.19;;;32.31;43.62
6453;BME280;3259;51.080;13.712;2023-08-24T15:06:02;100103.56;;;32.32;43.68